Observation data for Goodlett on 04/06/2020      Previous  Date  Next       Current Mesonet Observations  Soil Data  Daily Summary Page  Observations in Plain Language
KGDS 060500Z 15009KT 16/13 A2996 RMK A01 T01580128  RH  086%=      5-min Rain = 0
KGDS 060505Z 16008KT 16/13 A2996 RMK A01 T01570128  RH  086%=      5-min Rain = 0
KGDS 060510Z 16009KT 16/13 A2996 RMK A01 T01580128  RH  086%=      5-min Rain = 0
KGDS 060515Z 15010KT 16/13 A2996 RMK A01 T01580129  RH  086%=      5-min Rain = 0
KGDS 060520Z 16009KT 16/13 A2996 RMK A01 T01580129  RH  086%=      5-min Rain = 0
KGDS 060525Z 16012KT 16/13 A2996 RMK A01 T01590129  RH  086%=      5-min Rain = 0
KGDS 060530Z 16012KT 16/13 A2996 RMK A01 T01600129  RH  085%=      5-min Rain = 0
KGDS 060535Z 16012KT 16/13 A2996 RMK A01 T01600129  RH  085%=      5-min Rain = 0
KGDS 060540Z 16013KT 16/13 A2996 RMK A01 T01600129  RH  085%=      5-min Rain = 0
KGDS 060545Z 16013G19KT 16/13 A2996 RMK A01 T01600128  RH  085%=      5-min Rain = 0
KGDS 060550Z 16015G20KT 16/13 A2996 RMK A01 T01600128  RH  085%=      5-min Rain = 0
KGDS 060555Z 16014KT 16/13 A2996 RMK A01 T01580127  RH  085%=      5-min Rain = 0
KGDS 060600Z 16015G20KT 16/13 A2995 RMK A01 T01570127  RH  086%=      5-min Rain = 0
KGDS 060605Z 16013G18KT 16/13 A2995 RMK A01 T01550126  RH  086%=      5-min Rain = 0
KGDS 060610Z 16014KT 15/13 A2995 RMK A01 T01530126  RH  087%=      5-min Rain = 0
KGDS 060615Z 16013KT 15/13 A2995 RMK A01 T01520126  RH  088%=      5-min Rain = 0
KGDS 060620Z 16011KT 15/13 A2995 RMK A01 T01510126  RH  088%=      5-min Rain = 0
KGDS 060625Z 16013KT 15/13 A2995 RMK A01 T01510126  RH  088%=      5-min Rain = 0
KGDS 060630Z 16012KT 15/13 A2995 RMK A01 T01500126  RH  089%=      5-min Rain = 0
KGDS 060635Z 16011KT 15/13 A2995 RMK A01 T01490126  RH  089%=      5-min Rain = 0
KGDS 060640Z 16011KT 15/13 A2995 RMK A01 T01480125  RH  090%=      5-min Rain = 0
KGDS 060645Z 16011KT 15/13 A2995 RMK A01 T01470125  RH  090%=      5-min Rain = 0
KGDS 060650Z 16010KT 15/13 A2995 RMK A01 T01460125  RH  090%=      5-min Rain = 0
KGDS 060655Z 16008G13KT 15/12 A2995 RMK A01 T01450124  RH  091%=      5-min Rain = 0
KGDS 060700Z 16007KT 14/12 A2995 RMK A01 T01440124  RH  091%=      5-min Rain = 0
KGDS 060705Z 15008KT 14/12 A2995 RMK A01 T01430124  RH  092%=      5-min Rain = 0
KGDS 060710Z 15008KT 14/12 A2995 RMK A01 T01430124  RH  092%=      5-min Rain = 0
KGDS 060715Z 15007KT 14/12 A2995 RMK A01 T01410123  RH  092%=      5-min Rain = 0
KGDS 060720Z 14007KT 14/12 A2994 RMK A01 T01410124  RH  093%=      5-min Rain = 0
KGDS 060725Z 14006KT 14/12 A2994 RMK A01 T01400123  RH  093%=      5-min Rain = 0
KGDS 060730Z 15007KT 14/12 A2994 RMK A01 T01400123  RH  093%=      5-min Rain = 0
KGDS 060735Z 15007KT 14/12 A2994 RMK A01 T01400123  RH  093%=      5-min Rain = 0
KGDS 060740Z 16008KT 14/12 A2994 RMK A01 T01400124  RH  093%=      5-min Rain = 0
KGDS 060745Z 16007KT 14/12 A2994 RMK A01 T01400123  RH  093%=      5-min Rain = 0
KGDS 060750Z 16007KT 14/12 A2994 RMK A01 T01390123  RH  093%=      5-min Rain = 0
KGDS 060755Z 16006KT 14/12 A2994 RMK A01 T01380122  RH  094%=      5-min Rain = 0
KGDS 060800Z 16004KT 14/12 A2994 RMK A01 T01370122  RH  094%=      5-min Rain = 0
KGDS 060805Z 16005KT 14/12 A2994 RMK A01 T01380123  RH  094%=      5-min Rain = 0
KGDS 060810Z 16005KT 14/12 A2994 RMK A01 T01390123  RH  094%=      5-min Rain = 0
KGDS 060815Z 16006KT 14/12 A2994 RMK A01 T01390123  RH  094%=      5-min Rain = 0
KGDS 060820Z 16006KT 14/12 A2994 RMK A01 T01400124  RH  094%=      5-min Rain = 0
KGDS 060825Z 17005KT 14/12 A2994 RMK A01 T01400124  RH  093%=      5-min Rain = 0
KGDS 060830Z 18005KT 14/12 A2994 RMK A01 T01400124  RH  093%=      5-min Rain = 0
KGDS 060835Z 18006KT 14/12 A2994 RMK A01 T01410124  RH  093%=      5-min Rain = 0
KGDS 060840Z 18008KT 14/12 A2994 RMK A01 T01410124  RH  093%=      5-min Rain = 0
KGDS 060845Z 17008KT 14/12 A2993 RMK A01 T01410124  RH  093%=      5-min Rain = 0
KGDS 060850Z 17009KT 14/12 A2993 RMK A01 T01410124  RH  093%=      5-min Rain = 0
KGDS 060855Z 17010KT 14/12 A2992 RMK A01 T01410124  RH  093%=      5-min Rain = 0
KGDS 060900Z 17010KT 14/13 A2992 RMK A01 T01420125  RH  093%=      5-min Rain = 0
KGDS 060905Z 17008KT 14/13 A2992 RMK A01 T01430125  RH  092%=      5-min Rain = 0
KGDS 060910Z 17009KT 14/13 A2992 RMK A01 T01430125  RH  092%=      5-min Rain = 0
KGDS 060915Z 17009KT 14/13 A2992 RMK A01 T01440126  RH  092%=      5-min Rain = 0
KGDS 060920Z 17009KT 14/13 A2992 RMK A01 T01440126  RH  092%=      5-min Rain = 0
KGDS 060925Z 16008KT 14/13 A2992 RMK A01 T01440126  RH  092%=      5-min Rain = 0
KGDS 060930Z 16008KT 15/13 A2992 RMK A01 T01450126  RH  092%=      5-min Rain = 0
KGDS 060935Z 16008KT 15/13 A2991 RMK A01 T01450127  RH  092%=      5-min Rain = 0
KGDS 060940Z 16009KT 15/13 A2991 RMK A01 T01450127  RH  092%=      5-min Rain = 0
KGDS 060945Z 16009KT 15/13 A2991 RMK A01 T01460127  RH  092%=      5-min Rain = 0
KGDS 060950Z 16009KT 15/13 A2991 RMK A01 T01460128  RH  092%=      5-min Rain = 0
KGDS 060955Z 16010KT 15/13 A2991 RMK A01 T01480129  RH  092%=      5-min Rain = 0
KGDS 061000Z 16010KT 15/13 A2991 RMK A01 T01490129  RH  091%=      5-min Rain = 0
KGDS 061005Z 16009KT 15/13 A2991 RMK A01 T01500129  RH  091%=      5-min Rain = 0
KGDS 061010Z 17010KT 15/13 A2991 RMK A01 T01500129  RH  091%=      5-min Rain = 0
KGDS 061015Z 17010KT 15/13 A2991 RMK A01 T01500130  RH  091%=      5-min Rain = 0
KGDS 061020Z 17011KT 15/13 A2991 RMK A01 T01510130  RH  091%=      5-min Rain = 0
KGDS 061025Z 17010KT 15/13 A2991 RMK A01 T01510130  RH  091%=      5-min Rain = 0
KGDS 061030Z 18009KT 15/13 A2991 RMK A01 T01520130  RH  091%=      5-min Rain = 0
KGDS 061035Z 18009KT 15/13 A2991 RMK A01 T01520131  RH  091%=      5-min Rain = 0
KGDS 061040Z 18009KT 15/13 A2991 RMK A01 T01520131  RH  091%=      5-min Rain = 0
KGDS 061045Z 18009KT 15/13 A2991 RMK A01 T01510131  RH  091%=      5-min Rain = 0
KGDS 061050Z 17009KT 15/13 A2991 RMK A01 T01510131  RH  091%=      5-min Rain = 0
KGDS 061055Z 17008KT 15/13 A2991 RMK A01 T01510131  RH  091%=      5-min Rain = 0
KGDS 061100Z 17008KT 15/13 A2991 RMK A01 T01520131  RH  091%=      5-min Rain = 0
KGDS 061105Z 17008KT 15/13 A2991 RMK A01 T01520131  RH  091%=      5-min Rain = 0
KGDS 061110Z 17009KT 15/13 A2991 RMK A01 T01520131  RH  091%=      5-min Rain = 0
KGDS 061115Z 17009KT 15/13 A2991 RMK A01 T01520132  RH  091%=      5-min Rain = 0
KGDS 061120Z 17009KT 15/13 A2991 RMK A01 T01520131  RH  091%=      5-min Rain = 0
KGDS 061125Z 17009KT 15/13 A2991 RMK A01 T01530132  RH  091%=      5-min Rain = 0
KGDS 061130Z 16009KT 15/13 A2991 RMK A01 T01530132  RH  091%=      5-min Rain = 0
KGDS 061135Z 16008KT 15/13 A2991 RMK A01 T01530132  RH  090%=      5-min Rain = 0
KGDS 061140Z 16009KT 15/13 A2991 RMK A01 T01540132  RH  090%=      5-min Rain = 0
KGDS 061145Z 16008KT 15/13 A2991 RMK A01 T01540132  RH  090%=      5-min Rain = 0
KGDS 061150Z 16009KT 15/13 A2991 RMK A01 T01540131  RH  090%=      5-min Rain = 0
KGDS 061155Z 16009KT 15/13 A2991 RMK A01 T01540131  RH  090%=      5-min Rain = 0
KGDS 061200Z 16009KT 15/13 A2991 RMK A01 T01540131  RH  090%=      5-min Rain = 0
KGDS 061205Z 16008KT 15/13 A2992 RMK A01 T01540131  RH  090%=      5-min Rain = 0
KGDS 061210Z 17009KT 15/13 A2992 RMK A01 T01540131  RH  090%=      5-min Rain = 0
KGDS 061215Z 16008KT 15/13 A2992 RMK A01 T01540131  RH  090%=      5-min Rain = 0
KGDS 061220Z 16009KT 15/13 A2993 RMK A01 T01540131  RH  090%=      5-min Rain = 0
KGDS 061225Z 16008KT 15/13 A2993 RMK A01 T01540131  RH  090%=      5-min Rain = 0
KGDS 061230Z 16008KT 15/13 A2994 RMK A01 T01540131  RH  090%=      5-min Rain = 0
KGDS 061235Z 17008KT 15/13 A2994 RMK A01 T01540131  RH  090%=      5-min Rain = 0
KGDS 061240Z 16008KT 15/13 A2994 RMK A01 T01540131  RH  090%=      5-min Rain = 0
KGDS 061245Z 16008KT 15/13 A2994 RMK A01 T01540131  RH  090%=      5-min Rain = 0
KGDS 061250Z 16008KT 15/13 A2995 RMK A01 T01540131  RH  090%=      5-min Rain = 0
KGDS 061255Z 17008KT 15/13 A2995 RMK A01 T01540131  RH  090%=      5-min Rain = 0
KGDS 061300Z 16009KT 15/13 A2995 RMK A01 T01540131  RH  090%=      5-min Rain = 0
KGDS 061305Z 17010KT 15/13 A2995 RMK A01 T01540131  RH  090%=      5-min Rain = 0
KGDS 061310Z 17010KT 15/13 A2995 RMK A01 T01540131  RH  090%=      5-min Rain = 0
KGDS 061315Z 16009KT 15/13 A2994 RMK A01 T01540131  RH  090%=      5-min Rain = 0
KGDS 061320Z 17010KT 16/13 A2994 RMK A01 T01550132  RH  090%=      5-min Rain = 0
KGDS 061325Z 17010KT 16/13 A2994 RMK A01 T01560132  RH  089%=      5-min Rain = 0
KGDS 061330Z 17010KT 16/13 A2994 RMK A01 T01570132  RH  089%=      5-min Rain = 0
KGDS 061335Z 17012KT 16/13 A2994 RMK A01 T01580133  RH  089%=      5-min Rain = 0
KGDS 061340Z 17011KT 16/13 A2994 RMK A01 T01580133  RH  088%=      5-min Rain = 0
KGDS 061345Z 16012KT 16/13 A2994 RMK A01 T01580133  RH  088%=      5-min Rain = 0
KGDS 061350Z 16013KT 16/13 A2994 RMK A01 T01590133  RH  088%=      5-min Rain = 0
KGDS 061355Z 17012G17KT 16/13 A2994 RMK A01 T01590133  RH  088%=      5-min Rain = 0
KGDS 061400Z 17012G17KT 16/13 A2995 RMK A01 T01600134  RH  088%=      5-min Rain = 0
KGDS 061405Z 17012G17KT 16/13 A2995 RMK A01 T01610134  RH  087%=      5-min Rain = 0
KGDS 061410Z 17012KT 16/13 A2995 RMK A01 T01620134  RH  087%=      5-min Rain = 0
KGDS 061415Z 17013KT 16/14 A2996 RMK A01 T01630135  RH  087%=      5-min Rain = 0
KGDS 061420Z 17015KT 16/14 A2995 RMK A01 T01640135  RH  086%=      5-min Rain = 0
KGDS 061425Z 17012KT 17/14 A2995 RMK A01 T01650136  RH  086%=      5-min Rain = 0
KGDS 061430Z 17012KT 17/14 A2996 RMK A01 T01660136  RH  086%=      5-min Rain = 0
KGDS 061435Z 17015KT 17/14 A2996 RMK A01 T01660136  RH  086%=      5-min Rain = 0
KGDS 061440Z 17014G19KT 17/14 A2996 RMK A01 T01660136  RH  086%=      5-min Rain = 0
KGDS 061445Z 17013KT 17/14 A2996 RMK A01 T01670137  RH  086%=      5-min Rain = 0
KGDS 061450Z 17015KT 17/14 A2996 RMK A01 T01670137  RH  085%=      5-min Rain = 0
KGDS 061455Z 17015KT 17/14 A2996 RMK A01 T01680137  RH  085%=      5-min Rain = 0
KGDS 061500Z 17013KT 17/14 A2996 RMK A01 T01700138  RH  085%=      5-min Rain = 0
KGDS 061505Z 17014KT 17/14 A2996 RMK A01 T01710138  RH  084%=      5-min Rain = 0
KGDS 061510Z 17014G19KT 17/14 A2996 RMK A01 T01730139  RH  084%=      5-min Rain = 0
KGDS 061515Z 18014KT 17/14 A2996 RMK A01 T01740139  RH  084%=      5-min Rain = 0
KGDS 061520Z 18014KT 18/14 A2996 RMK A01 T01760140  RH  083%=      5-min Rain = 0
KGDS 061525Z 17014KT 18/14 A2996 RMK A01 T01760140  RH  083%=      5-min Rain = 0
KGDS 061530Z 18013G19KT 18/14 A2995 RMK A01 T01770141  RH  083%=      5-min Rain = 0
KGDS 061535Z 17014KT 18/14 A2995 RMK A01 T01770140  RH  083%=      5-min Rain = 0
KGDS 061540Z 18014KT 18/14 A2996 RMK A01 T01790141  RH  082%=      5-min Rain = 0
KGDS 061545Z 18012KT 18/14 A2996 RMK A01 T01810143  RH  082%=      5-min Rain = 0
KGDS 061550Z 18012KT 19/14 A2996 RMK A01 T01860144  RH  080%=      5-min Rain = 0
KGDS 061555Z 18013KT 19/15 A2996 RMK A01 T01880145  RH  079%=      5-min Rain = 0
KGDS 061600Z 17013KT 19/14 A2995 RMK A01 T01860143  RH  079%=      5-min Rain = 0
KGDS 061605Z 18013KT 19/14 A2995 RMK A01 T01880144  RH  079%=      5-min Rain = 0
KGDS 061610Z 18012KT 19/15 A2996 RMK A01 T01920146  RH  078%=      5-min Rain = 0
KGDS 061615Z 18013KT 19/14 A2996 RMK A01 T01910144  RH  078%=      5-min Rain = 0
KGDS 061620Z 19014KT 19/14 A2996 RMK A01 T01890144  RH  078%=      5-min Rain = 0
KGDS 061625Z 19013KT 19/14 A2996 RMK A01 T01900144  RH  078%=      5-min Rain = 0
KGDS 061630Z 19013KT 19/14 A2996 RMK A01 T01910144  RH  078%=      5-min Rain = 0
KGDS 061635Z 19013KT 19/15 A2996 RMK A01 T01940146  RH  077%=      5-min Rain = 0
KGDS 061640Z 18015KT 20/15 A2996 RMK A01 T01960146  RH  076%=      5-min Rain = 0
KGDS 061645Z 19013G18KT 20/15 A2996 RMK A01 T01980146  RH  075%=      5-min Rain = 0
KGDS 061650Z 19013G19KT 20/15 A2996 RMK A01 T01980146  RH  075%=      5-min Rain = 0
KGDS 061655Z 18015G20KT 20/15 A2996 RMK A01 T01960145  RH  076%=      5-min Rain = 0
KGDS 061700Z 18014KT 20/15 A2995 RMK A01 T01990146  RH  075%=      5-min Rain = 0
KGDS 061705Z 19015KT 20/15 A2995 RMK A01 T02010146  RH  074%=      5-min Rain = 0
KGDS 061710Z 19015KT 20/15 A2995 RMK A01 T02010146  RH  074%=      5-min Rain = 0
KGDS 061715Z 20015KT 20/15 A2994 RMK A01 T02040145  RH  072%=      5-min Rain = 0
KGDS 061720Z 20015KT 21/15 A2994 RMK A01 T02050145  RH  071%=      5-min Rain = 0
KGDS 061725Z 20018KT 21/14 A2994 RMK A01 T02060144  RH  071%=      5-min Rain = 0
KGDS 061730Z 21017KT 20/14 A2994 RMK A01 T02040143  RH  071%=      5-min Rain = 0
KGDS 061735Z 20016KT 21/15 A2994 RMK A01 T02080145  RH  070%=      5-min Rain = 0
KGDS 061740Z 19016KT 21/14 A2994 RMK A01 T02050144  RH  071%=      5-min Rain = 0
KGDS 061745Z 20018KT 21/15 A2994 RMK A01 T02070145  RH  070%=      5-min Rain = 0
KGDS 061750Z 20016KT 21/15 A2994 RMK A01 T02070145  RH  070%=      5-min Rain = 0
KGDS 061755Z 21015G20KT 21/15 A2994 RMK A01 T02130149  RH  070%=      5-min Rain = 0
KGDS 061800Z 20015KT 21/15 A2994 RMK A01 T02140147  RH  069%=      5-min Rain = 0
KGDS 061805Z 20015G20KT 22/15 A2993 RMK A01 T02180149  RH  068%=      5-min Rain = 0
KGDS 061810Z 20014KT 22/15 A2993 RMK A01 T02180150  RH  068%=      5-min Rain = 0
KGDS 061815Z 19016G21KT 22/15 A2993 RMK A01 T02180149  RH  068%=      5-min Rain = 0
KGDS 061820Z 20015G23KT 22/15 A2993 RMK A01 T02200151  RH  068%=      5-min Rain = 0
KGDS 061825Z 20016G21KT 23/15 A2993 RMK A01 T02250151  RH  066%=      5-min Rain = 0
KGDS 061830Z 19014G20KT 22/15 A2992 RMK A01 T02240151  RH  066%=      5-min Rain = 0
KGDS 061835Z 19016KT 22/15 A2992 RMK A01 T02210149  RH  066%=      5-min Rain = 0
KGDS 061840Z 20015G20KT 22/15 A2992 RMK A01 T02210149  RH  067%=      5-min Rain = 0
KGDS 061845Z 19015KT 22/15 A2992 RMK A01 T02200149  RH  067%=      5-min Rain = 0
KGDS 061850Z 18015KT 22/15 A2992 RMK A01 T02170149  RH  068%=      5-min Rain = 0
KGDS 061855Z 18014KT 22/15 A2992 RMK A01 T02180151  RH  069%=      5-min Rain = 0
KGDS 061900Z 19014KT 22/15 A2991 RMK A01 T02210151  RH  068%=      5-min Rain = 0
KGDS 061905Z 18014KT 22/15 A2991 RMK A01 T02210151  RH  068%=      5-min Rain = 0
KGDS 061910Z 18012KT 22/15 A2991 RMK A01 T02200151  RH  068%=      5-min Rain = 0
KGDS 061915Z 19012KT 22/15 A2991 RMK A01 T02210151  RH  068%=      5-min Rain = 0
KGDS 061920Z 19013KT 22/15 A2991 RMK A01 T02240152  RH  067%=      5-min Rain = 0
KGDS 061925Z 18014KT 23/15 A2991 RMK A01 T02270153  RH  066%=      5-min Rain = 0
KGDS 061930Z 18013KT 23/15 A299 RMK A01 T02270152  RH  066%=      5-min Rain = 0
KGDS 061935Z 18012KT 23/15 A299 RMK A01 T02250152  RH  066%=      5-min Rain = 0
KGDS 061940Z 18013KT 23/15 A299 RMK A01 T02250151  RH  066%=      5-min Rain = 0
KGDS 061945Z 18011KT 23/15 A299 RMK A01 T02300153  RH  065%=      5-min Rain = 0
KGDS 061950Z 19011KT 24/15 A299 RMK A01 T02360153  RH  063%=      5-min Rain = 0
KGDS 061955Z 18011G17KT 24/15 A299 RMK A01 T02360153  RH  063%=      5-min Rain = 0
KGDS 062000Z 19012G17KT 24/15 A299 RMK A01 T02370151  RH  061%=      5-min Rain = 0
KGDS 062005Z 18013G18KT 24/15 A2989 RMK A01 T02390152  RH  061%=      5-min Rain = 0
KGDS 062010Z 19012G18KT 24/15 A2989 RMK A01 T02420151  RH  059%=      5-min Rain = 0
KGDS 062015Z 18010KT 25/15 A2989 RMK A01 T02450154  RH  059%=      5-min Rain = 0
KGDS 062020Z 17010KT 25/16 A2989 RMK A01 T02450155  RH  060%=      5-min Rain = 0
KGDS 062025Z 17010G15KT 25/16 A2988 RMK A01 T02480156  RH  059%=      5-min Rain = 0
KGDS 062030Z 18012G17KT 25/15 A2989 RMK A01 T02470153  RH  059%=      5-min Rain = 0
KGDS 062035Z 18012KT 25/15 A2988 RMK A01 T02490153  RH  058%=      5-min Rain = 0
KGDS 062040Z 18013KT 25/15 A2988 RMK A01 T02480149  RH  057%=      5-min Rain = 0
KGDS 062045Z 18011KT 25/15 A2988 RMK A01 T02470152  RH  058%=      5-min Rain = 0
KGDS 062050Z 17010KT 25/16 A2988 RMK A01 T02490155  RH  059%=      5-min Rain = 0
KGDS 062055Z 18012KT 25/15 A2987 RMK A01 T02490154  RH  058%=      5-min Rain = 0
KGDS 062100Z 18012KT 25/15 A2987 RMK A01 T02490154  RH  058%=      5-min Rain = 0
KGDS 062105Z 18013G18KT 25/15 A2987 RMK A01 T02490153  RH  058%=      5-min Rain = 0
KGDS 062110Z 17013KT 25/15 A2986 RMK A01 T02460154  RH  059%=      5-min Rain = 0
KGDS 062115Z 17012KT 25/16 A2986 RMK A01 T02480155  RH  059%=      5-min Rain = 0
KGDS 062120Z 19011KT 25/15 A2987 RMK A01 T02480151  RH  057%=      5-min Rain = 0
KGDS 062125Z 17012KT 25/15 A2986 RMK A01 T02470153  RH  058%=      5-min Rain = 0
KGDS 062130Z 18013KT 25/15 A2986 RMK A01 T02480152  RH  058%=      5-min Rain = 0
KGDS 062135Z 17012KT 25/16 A2986 RMK A01 T02480155  RH  059%=      5-min Rain = 0
KGDS 062140Z 17014KT 25/16 A2986 RMK A01 T02490156  RH  059%=      5-min Rain = 0
KGDS 062145Z 17013KT 25/16 A2986 RMK A01 T02510157  RH  058%=      5-min Rain = 0
KGDS 062150Z 17012KT 25/16 A2986 RMK A01 T02480155  RH  059%=      5-min Rain = 0
KGDS 062155Z 17012KT 25/16 A2986 RMK A01 T02490155  RH  058%=      5-min Rain = 0
KGDS 062200Z 18011G16KT 25/15 A2986 RMK A01 T02480154  RH  058%=      5-min Rain = 0
KGDS 062205Z 17010KT 25/16 A2986 RMK A01 T02490156  RH  059%=      5-min Rain = 0
KGDS 062210Z 17012G17KT 25/16 A2986 RMK A01 T02490155  RH  058%=      5-min Rain = 0
KGDS 062215Z 17014KT 25/15 A2985 RMK A01 T02490150  RH  057%=      5-min Rain = 0
KGDS 062220Z 17013KT 25/15 A2985 RMK A01 T02500149  RH  056%=      5-min Rain = 0
KGDS 062225Z 16013KT 25/15 A2985 RMK A01 T02530153  RH  057%=      5-min Rain = 0
KGDS 062230Z 17014KT 25/15 A2985 RMK A01 T02530152  RH  056%=      5-min Rain = 0
KGDS 062235Z 16013KT 25/15 A2985 RMK A01 T02510151  RH  056%=      5-min Rain = 0
KGDS 062240Z 17012G17KT 26/15 A2985 RMK A01 T02570152  RH  055%=      5-min Rain = 0
KGDS 062245Z 16014KT 25/15 A2985 RMK A01 T02540152  RH  056%=      5-min Rain = 0
KGDS 062250Z 16014G20KT 25/15 A2985 RMK A01 T02510152  RH  057%=      5-min Rain = 0
KGDS 062255Z 17014G19KT 25/15 A2985 RMK A01 T02520148  RH  055%=      5-min Rain = 0
KGDS 062300Z 15013KT 25/16 A2985 RMK A01 T02460155  RH  060%=      5-min Rain = 0
KGDS 062305Z 15014KT 25/16 A2985 RMK A01 T02450157  RH  061%=      5-min Rain = 0
KGDS 062310Z 16014KT 25/16 A2985 RMK A01 T02460155  RH  060%=      5-min Rain = 0
KGDS 062315Z 16015KT 24/16 A2985 RMK A01 T02440156  RH  060%=      5-min Rain = 0
KGDS 062320Z 16014KT 24/16 A2985 RMK A01 T02430155  RH  060%=      5-min Rain = 0
KGDS 062325Z 17015KT 24/15 A2985 RMK A01 T02430151  RH  059%=      5-min Rain = 0
KGDS 062330Z 17013KT 24/15 A2985 RMK A01 T02420150  RH  059%=      5-min Rain = 0
KGDS 062335Z 17014KT 24/15 A2985 RMK A01 T02370151  RH  061%=      5-min Rain = 0
KGDS 062340Z 16015KT 23/15 A2985 RMK A01 T02340154  RH  064%=      5-min Rain = 0
KGDS 062345Z 16014G20KT 23/16 A2985 RMK A01 T02310155  RH  065%=      5-min Rain = 0
KGDS 062350Z 17014KT 23/15 A2985 RMK A01 T02300154  RH  065%=      5-min Rain = 0
KGDS 062355Z 17015KT 23/15 A2985 RMK A01 T02280154  RH  066%=      5-min Rain = 0
KGDS 070000Z 17014KT 23/15 A2985 RMK A01 T02280154  RH  066%=      5-min Rain = 0
KGDS 070005Z 17014KT 23/15 A2986 RMK A01 T02260154  RH  067%=      5-min Rain = 0
KGDS 070010Z 17013KT 22/16 A2986 RMK A01 T02230156  RH  069%=      5-min Rain = 0
KGDS 070015Z 17013KT 22/16 A2986 RMK A01 T02200157  RH  070%=      5-min Rain = 0
KGDS 070020Z 17012KT 22/16 A2986 RMK A01 T02180157  RH  071%=      5-min Rain = 0
KGDS 070025Z 16011KT 22/16 A2986 RMK A01 T02170158  RH  072%=      5-min Rain = 0
KGDS 070030Z 16011KT 22/16 A2986 RMK A01 T02160158  RH  073%=      5-min Rain = 0
KGDS 070035Z 16011KT 22/16 A2986 RMK A01 T02150158  RH  073%=      5-min Rain = 0
KGDS 070040Z 16011KT 21/16 A2986 RMK A01 T02130158  RH  074%=      5-min Rain = 0
KGDS 070045Z 17011KT 21/16 A2986 RMK A01 T02120158  RH  075%=      5-min Rain = 0
KGDS 070050Z 17012KT 21/16 A2986 RMK A01 T02110158  RH  075%=      5-min Rain = 0
KGDS 070055Z 17011KT 21/16 A2986 RMK A01 T02110158  RH  075%=      5-min Rain = 0
KGDS 070100Z 17010KT 21/16 A2986 RMK A01 T02090158  RH  076%=      5-min Rain = 0
KGDS 070105Z 17010KT 21/16 A2986 RMK A01 T02080158  RH  076%=      5-min Rain = 0
KGDS 070110Z 16010KT 21/16 A2986 RMK A01 T02080158  RH  077%=      5-min Rain = 0
KGDS 070115Z 16010KT 21/16 A2986 RMK A01 T02060158  RH  077%=      5-min Rain = 0
KGDS 070120Z 16010KT 21/16 A2987 RMK A01 T02060159  RH  078%=      5-min Rain = 0
KGDS 070125Z 16010KT 21/16 A2987 RMK A01 T02050159  RH  079%=      5-min Rain = 0
KGDS 070130Z 16010KT 20/16 A2986 RMK A01 T02030159  RH  080%=      5-min Rain = 0
KGDS 070135Z 16010KT 20/16 A2987 RMK A01 T02020159  RH  080%=      5-min Rain = 0
KGDS 070140Z 16010KT 20/16 A2987 RMK A01 T02010160  RH  081%=      5-min Rain = 0
KGDS 070145Z 16010KT 20/16 A2987 RMK A01 T02000160  RH  081%=      5-min Rain = 0
KGDS 070150Z 16010KT 20/16 A2987 RMK A01 T02000160  RH  082%=      5-min Rain = 0
KGDS 070155Z 16011KT 20/16 A2987 RMK A01 T01990160  RH  082%=      5-min Rain = 0
KGDS 070200Z 16011KT 20/16 A2987 RMK A01 T01980160  RH  082%=      5-min Rain = 0
KGDS 070205Z 17012G17KT 20/16 A2987 RMK A01 T01980160  RH  082%=      5-min Rain = 0
KGDS 070210Z 16010KT 20/16 A2987 RMK A01 T01970159  RH  083%=      5-min Rain = 0
KGDS 070215Z 16010KT 20/16 A2987 RMK A01 T01960159  RH  083%=      5-min Rain = 0
KGDS 070220Z 17010KT 19/16 A2987 RMK A01 T01940159  RH  084%=      5-min Rain = 0
KGDS 070225Z 17010KT 19/16 A2988 RMK A01 T01930158  RH  084%=      5-min Rain = 0
KGDS 070230Z 17010KT 19/16 A2989 RMK A01 T01930158  RH  084%=      5-min Rain = 0
KGDS 070235Z 17009KT 19/16 A2989 RMK A01 T01930157  RH  084%=      5-min Rain = 0
KGDS 070240Z 17009KT 19/16 A2989 RMK A01 T01910157  RH  084%=      5-min Rain = 0
KGDS 070245Z 17010KT 19/16 A2989 RMK A01 T01900157  RH  085%=      5-min Rain = 0
KGDS 070250Z 17011KT 19/16 A2989 RMK A01 T01890156  RH  085%=      5-min Rain = 0
KGDS 070255Z 17010KT 19/16 A2989 RMK A01 T01890156  RH  085%=      5-min Rain = 0
KGDS 070300Z 18011KT 19/16 A2989 RMK A01 T01880156  RH  085%=      5-min Rain = 0
KGDS 070305Z 18011KT 19/16 A2989 RMK A01 T01880156  RH  085%=      5-min Rain = 0
KGDS 070310Z 18012KT 19/16 A2989 RMK A01 T01880156  RH  085%=      5-min Rain = 0
KGDS 070315Z 18011KT 19/16 A2989 RMK A01 T01880156  RH  085%=      5-min Rain = 0
KGDS 070320Z 18010KT 19/16 A2989 RMK A01 T01870155  RH  086%=      5-min Rain = 0
KGDS 070325Z 18011KT 19/16 A2989 RMK A01 T01860155  RH  086%=      5-min Rain = 0
KGDS 070330Z 18010KT 19/16 A299 RMK A01 T01850155  RH  086%=      5-min Rain = 0
KGDS 070335Z 18010KT 19/16 A299 RMK A01 T01850155  RH  086%=      5-min Rain = 0
KGDS 070340Z 18011KT 18/16 A299 RMK A01 T01840155  RH  087%=      5-min Rain = 0
KGDS 070345Z 18011KT 18/16 A299 RMK A01 T01840155  RH  087%=      5-min Rain = 0
KGDS 070350Z 19011KT 18/16 A299 RMK A01 T01840155  RH  087%=      5-min Rain = 0
KGDS 070355Z 18011KT 18/15 A299 RMK A01 T01830154  RH  087%=      5-min Rain = 0
KGDS 070400Z 19010KT 18/15 A299 RMK A01 T01810154  RH  088%=      5-min Rain = 0
KGDS 070405Z 19010KT 18/15 A2989 RMK A01 T01800154  RH  088%=      5-min Rain = 0
KGDS 070410Z 18010KT 18/15 A2989 RMK A01 T01790154  RH  089%=      5-min Rain = 0
KGDS 070415Z 18009KT 18/15 A2989 RMK A01 T01790154  RH  089%=      5-min Rain = 0
KGDS 070420Z 18009KT 18/15 A2989 RMK A01 T01790154  RH  089%=      5-min Rain = 0
KGDS 070425Z 19008KT 18/15 A2989 RMK A01 T01780154  RH  090%=      5-min Rain = 0
KGDS 070430Z 18008KT 18/15 A299 RMK A01 T01770153  RH  090%=      5-min Rain = 0
KGDS 070435Z 18007KT 18/15 A2989 RMK A01 T01760153  RH  090%=      5-min Rain = 0
KGDS 070440Z 18006KT 18/15 A299 RMK A01 T01750153  RH  091%=      5-min Rain = 0
KGDS 070445Z 17006KT 18/15 A2989 RMK A01 T01750153  RH  091%=      5-min Rain = 0
KGDS 070450Z 17005KT 18/15 A2989 RMK A01 T01750153  RH  091%=      5-min Rain = 0
KGDS 070455Z 17005KT 18/15 A2989 RMK A01 T01750153  RH  091%=      5-min Rain = 0

Page generated in 0.0101 seconds.